Time;durP1;ratioP1;P1;durP2;ratioP2;P2;SDS_P1;SDS_P2;PMS_P1;PMS_P2;Temp;Humidity;BMP_temperature;BMP_pressure;BME280_temperature;BME280_humidity;BME280_pressure;Samples;Min_cycle;Max_cycle;Signal;HPM_P1;HPM_P2
2023/07/14 02:01:10;;;;;;;6.40;3.87;;;;;;;;;;4714374;28;20066;-77
2023/07/14 02:03:40;;;;;;;8.30;4.28;;;;;;;;;;4292006;33;20041;-77
2023/07/14 02:06:06;;;;;;;5.70;3.80;;;;;;;;;;4279146;33;20046;-79
2023/07/14 02:08:32;;;;;;;4.70;4.30;;;;;;;;;;4263573;33;20056;-80
2023/07/14 02:10:59;;;;;;;10.43;4.85;;;;;;;;;;4236165;33;20667;-80
2023/07/14 02:13:25;;;;;;;5.90;4.55;;;;;;;;;;4221653;33;20528;-79
2023/07/14 02:15:52;;;;;;;9.50;4.57;;;;;;;;;;4208274;34;20039;-79
2023/07/14 02:18:21;;;;;;;5.03;4.18;;;;;;;;;;4206193;34;20142;-78
2023/07/14 02:20:47;;;;;;;6.00;3.60;;;;;;;;;;4203665;34;20182;-78
2023/07/14 02:23:19;;;;;;;7.87;4.43;;;;;;;;;;4208382;34;20081;-78
2023/07/14 02:25:46;;;;;;;3.92;3.42;;;;;;;;;;4209345;34;20501;-78
2023/07/14 02:28:13;;;;;;;8.25;4.37;;;;;;;;;;4207867;34;20055;-79
2023/07/14 02:30:42;;;;;;;7.07;4.37;;;;;;;;;;4177541;34;20044;-77
2023/07/14 02:33:23;;;;;;;5.55;4.70;;;;;;;;;;4179436;34;20059;-80
2023/07/14 02:36:07;;;;;;;10.63;4.55;;;;;;;;;;4166217;34;20039;-79
2023/07/14 02:38:41;;;;;;;6.35;4.65;;;;;;;;;;4166796;34;20127;-79
2023/07/14 02:41:14;;;;;;;5.80;3.40;;;;;;;;;;4180282;34;20055;-78
2023/07/14 02:43:48;;;;;;;4.85;4.30;;;;;;;;;;4195797;34;20057;-79
2023/07/14 02:46:14;;;;;;;11.07;4.28;;;;;;;;;;4206008;34;20047;-78
2023/07/14 02:48:42;;;;;;;12.10;5.32;;;;;;;;;;4213491;33;20898;-77
2023/07/14 02:51:09;;;;;;;7.90;4.53;;;;;;;;;;4235919;33;20089;-77
2023/07/14 02:53:36;;;;;;;11.05;4.97;;;;;;;;;;4235122;33;20034;-79
2023/07/14 02:56:02;;;;;;;6.57;4.45;;;;;;;;;;4234056;33;20342;-79
2023/07/14 02:58:28;;;;;;;6.57;4.25;;;;;;;;;;4234396;33;20112;-78
2023/07/14 03:00:55;;;;;;;8.32;5.47;;;;;;;;;;4240131;33;20050;-79
2023/07/14 03:03:22;;;;;;;9.75;4.87;;;;;;;;;;4249881;33;20030;-78
2023/07/14 03:05:49;;;;;;;6.60;4.10;;;;;;;;;;4251001;33;20928;-77
2023/07/14 03:08:16;;;;;;;9.13;4.37;;;;;;;;;;4262548;33;20050;-78
2023/07/14 03:10:47;;;;;;;7.60;4.22;;;;;;;;;;4295333;33;20090;-76
2023/07/14 03:13:14;;;;;;;7.28;3.97;;;;;;;;;;4308881;33;20066;-77
2023/07/14 03:15:42;;;;;;;6.00;4.10;;;;;;;;;;4308742;33;20061;-78
2023/07/14 03:18:14;;;;;;;13.02;5.05;;;;;;;;;;4307799;33;20071;-77
2023/07/14 03:20:41;;;;;;;8.52;4.85;;;;;;;;;;4309825;33;20184;-79
2023/07/14 03:23:08;;;;;;;10.13;5.43;;;;;;;;;;4309777;33;20102;-79
2023/07/14 03:25:34;;;;;;;6.78;4.68;;;;;;;;;;4309997;33;20063;-78
2023/07/14 03:28:01;;;;;;;9.82;5.10;;;;;;;;;;4309485;33;20132;-81
2023/07/14 03:30:31;;;;;;;5.12;4.50;;;;;;;;;;4308739;33;20394;-80
2023/07/14 03:32:57;;;;;;;7.03;4.68;;;;;;;;;;4309015;33;20412;-79
2023/07/14 03:35:24;;;;;;;9.00;4.75;;;;;;;;;;4309064;33;20030;-78
2023/07/14 03:37:50;;;;;;;9.38;4.20;;;;;;;;;;4277091;33;20767;-78
2023/07/14 03:40:16;;;;;;;6.95;4.68;;;;;;;;;;4274873;33;20136;-79
2023/07/14 03:42:43;;;;;;;6.90;5.10;;;;;;;;;;4248460;33;20050;-79
2023/07/14 03:45:09;;;;;;;6.43;4.80;;;;;;;;;;4250081;33;20030;-81
2023/07/14 03:47:39;;;;;;;7.72;5.03;;;;;;;;;;4248760;33;20046;-79
2023/07/14 03:50:07;;;;;;;6.43;5.28;;;;;;;;;;4216669;34;20059;-79
2023/07/14 03:52:34;;;;;;;6.32;4.78;;;;;;;;;;4221939;33;20050;-79
2023/07/14 03:55:00;;;;;;;10.43;4.22;;;;;;;;;;4223917;34;20161;-79
2023/07/14 03:57:26;;;;;;;7.50;4.80;;;;;;;;;;4194657;34;20082;-79
2023/07/14 03:59:52;;;;;;;10.38;3.65;;;;;;;;;;4193866;34;20191;-80
2023/07/14 04:02:18;;;;;;;4.82;4.15;;;;;;;;;;4190146;34;20117;-80
2023/07/14 04:04:45;;;;;;;8.48;4.70;;;;;;;;;;4196430;34;20043;-80
2023/07/14 04:07:11;;;;;;;9.00;4.20;;;;;;;;;;4196381;34;20065;-80
2023/07/14 04:09:37;;;;;;;5.53;4.00;;;;;;;;;;4205625;34;20545;-79
2023/07/14 04:12:10;;;;;;;7.12;3.33;;;;;;;;;;4207700;34;20063;-79
2023/07/14 04:14:37;;;;;;;5.55;4.35;;;;;;;;;;4232071;33;20043;-79
2023/07/14 04:17:03;;;;;;;5.68;3.70;;;;;;;;;;4237559;33;20042;-80
2023/07/14 04:19:29;;;;;;;8.75;3.72;;;;;;;;;;4237928;33;20104;-80
2023/07/14 04:21:56;;;;;;;11.20;4.57;;;;;;;;;;4260180;33;20046;-80
2023/07/14 04:24:22;;;;;;;14.30;4.03;;;;;;;;;;4264836;33;20087;-80
2023/07/14 04:26:49;;;;;;;6.60;3.90;;;;;;;;;;4272425;33;20222;-80
2023/07/14 04:29:15;;;;;;;8.25;5.15;;;;;;;;;;4289049;33;20104;-80
2023/07/14 04:31:41;;;;;;;5.53;3.53;;;;;;;;;;4293631;33;20049;-79
2023/07/14 04:34:07;;;;;;;8.43;4.20;;;;;;;;;;4292852;33;20454;-79
2023/07/14 04:36:33;;;;;;;5.97;4.28;;;;;;;;;;4290721;33;20052;-79
2023/07/14 04:39:04;;;;;;;5.47;3.28;;;;;;;;;;4293312;33;20049;-79
2023/07/14 04:41:31;;;;;;;12.57;3.70;;;;;;;;;;4294784;33;20074;-80
2023/07/14 04:43:57;;;;;;;4.62;3.62;;;;;;;;;;4279036;33;20138;-79
2023/07/14 04:46:23;;;;;;;3.95;3.35;;;;;;;;;;4279076;33;20045;-80
2023/07/14 04:48:50;;;;;;;6.35;3.80;;;;;;;;;;4278870;33;20119;-79
2023/07/14 04:51:17;;;;;;;5.37;3.40;;;;;;;;;;4288768;33;20111;-80
2023/07/14 04:53:43;;;;;;;10.20;3.40;;;;;;;;;;4292129;33;20070;-80
2023/07/14 04:56:09;;;;;;;9.20;3.60;;;;;;;;;;4249220;33;20292;-82
2023/07/14 04:58:35;;;;;;;11.27;3.67;;;;;;;;;;4257501;33;20050;-81
2023/07/14 05:01:01;;;;;;;7.28;3.47;;;;;;;;;;4254778;33;20423;-80
2023/07/14 05:03:28;;;;;;;4.40;3.03;;;;;;;;;;4262985;33;20118;-80
2023/07/14 05:05:54;;;;;;;3.53;3.22;;;;;;;;;;4257377;33;20060;-80
2023/07/14 05:08:21;;;;;;;3.12;2.90;;;;;;;;;;4270896;33;20090;-81
2023/07/14 05:10:47;;;;;;;4.65;2.95;;;;;;;;;;4274551;33;20083;-81
2023/07/14 05:13:13;;;;;;;7.85;3.67;;;;;;;;;;4262246;33;20042;-80
2023/07/14 05:15:41;;;;;;;7.93;3.10;;;;;;;;;;4263675;33;20037;-81
2023/07/14 05:18:07;;;;;;;6.25;2.72;;;;;;;;;;4263665;33;20041;-81
2023/07/14 05:20:33;;;;;;;8.35;2.85;;;;;;;;;;4248550;33;20071;-81
2023/07/14 05:22:59;;;;;;;13.02;3.55;;;;;;;;;;4248203;33;20038;-80
2023/07/14 05:25:25;;;;;;;9.00;3.33;;;;;;;;;;4249489;33;20055;-82
2023/07/14 05:27:51;;;;;;;4.12;2.55;;;;;;;;;;4218249;34;20481;-81
2023/07/14 05:30:20;;;;;;;3.08;2.45;;;;;;;;;;4222655;34;20108;-80
2023/07/14 05:32:46;;;;;;;5.78;2.90;;;;;;;;;;4186690;34;20055;-80
2023/07/14 05:35:13;;;;;;;3.42;2.50;;;;;;;;;;4192696;34;20778;-80
2023/07/14 05:37:40;;;;;;;5.43;2.37;;;;;;;;;;4194078;34;20048;-81
2023/07/14 05:40:08;;;;;;;4.07;2.80;;;;;;;;;;4194503;34;20032;-81
2023/07/14 05:42:34;;;;;;;8.35;3.10;;;;;;;;;;4189928;34;20044;-81
2023/07/14 05:45:00;;;;;;;2.55;2.33;;;;;;;;;;4190854;34;20062;-81
2023/07/14 05:47:26;;;;;;;3.12;2.87;;;;;;;;;;4193462;34;20446;-83
2023/07/14 05:49:52;;;;;;;2.20;1.80;;;;;;;;;;4200841;34;20081;-80
2023/07/14 05:52:18;;;;;;;2.30;2.10;;;;;;;;;;4204815;34;20048;-79
2023/07/14 05:54:47;;;;;;;9.18;2.50;;;;;;;;;;4193536;34;20055;-79
2023/07/14 05:57:13;;;;;;;8.90;2.40;;;;;;;;;;4202482;33;20072;-79
2023/07/14 05:59:40;;;;;;;8.43;2.58;;;;;;;;;;4267347;33;20464;-80
2023/07/14 06:02:06;;;;;;;2.95;2.50;;;;;;;;;;4277029;33;20140;-78
2023/07/14 06:04:36;;;;;;;4.37;2.00;;;;;;;;;;4291449;33;20044;-78
2023/07/14 06:07:06;;;;;;;5.43;1.90;;;;;;;;;;4305958;33;20048;-78
2023/07/14 06:09:34;;;;;;;7.37;2.28;;;;;;;;;;4309861;33;20374;-78
2023/07/14 06:12:03;;;;;;;1.70;1.60;;;;;;;;;;4309743;33;20102;-79
2023/07/14 06:14:33;;;;;;;5.03;2.15;;;;;;;;;;4309635;33;20079;-78
2023/07/14 06:17:00;;;;;;;4.93;1.80;;;;;;;;;;4303656;33;20164;-80
2023/07/14 06:19:30;;;;;;;13.98;1.67;;;;;;;;;;4306476;33;20426;-80
2023/07/14 06:21:56;;;;;;;7.53;1.90;;;;;;;;;;4309889;33;20048;-79
2023/07/14 06:24:23;;;;;;;3.25;2.08;;;;;;;;;;4309945;33;20071;-79
2023/07/14 06:26:49;;;;;;;1.70;1.60;;;;;;;;;;4309401;33;20120;-81
2023/07/14 06:29:22;;;;;;;7.75;2.15;;;;;;;;;;4310250;33;20057;-81
2023/07/14 06:31:49;;;;;;;1.92;1.83;;;;;;;;;;4306081;33;20079;-82
2023/07/14 06:34:15;;;;;;;9.38;4.03;;;;;;;;;;4308864;33;20086;-86
2023/07/14 06:36:41;;;;;;;5.68;2.62;;;;;;;;;;4278291;33;20562;-82
2023/07/14 06:39:07;;;;;;;3.08;2.22;;;;;;;;;;4234677;33;20072;-85
2023/07/14 06:41:33;;;;;;;11.32;2.75;;;;;;;;;;4212210;34;20389;-80
2023/07/14 06:44:02;;;;;;;12.05;2.12;;;;;;;;;;4206071;34;20514;-84
2023/07/14 06:46:29;;;;;;;8.45;1.77;;;;;;;;;;4207620;34;20043;-84
2023/07/14 06:49:03;;;;;;;3.30;1.52;;;;;;;;;;4175051;34;20050;-80
2023/07/14 06:51:29;;;;;;;3.40;1.92;;;;;;;;;;4179063;34;20069;-79
2023/07/14 06:53:56;;;;;;;2.35;1.60;;;;;;;;;;4149851;34;20060;-80
2023/07/14 06:56:22;;;;;;;12.65;2.25;;;;;;;;;;4152377;34;20526;-82
2023/07/14 06:58:49;;;;;;;6.15;1.83;;;;;;;;;;4152134;34;20417;-81
2023/07/14 07:01:18;;;;;;;2.33;1.67;;;;;;;;;;4149017;34;20037;-79
2023/07/14 07:03:44;;;;;;;14.35;3.78;;;;;;;;;;4148746;34;20078;-79
2023/07/14 07:06:10;;;;;;;3.22;1.52;;;;;;;;;;4151991;34;20065;-80
2023/07/14 07:08:36;;;;;;;8.90;2.78;;;;;;;;;;4164035;34;20061;-79
2023/07/14 07:11:02;;;;;;;5.95;2.60;;;;;;;;;;4190808;34;20346;-80
2023/07/14 07:13:29;;;;;;;6.28;1.95;;;;;;;;;;4226159;33;20137;-79
2023/07/14 07:15:55;;;;;;;6.03;2.05;;;;;;;;;;4225452;33;20416;-79
2023/07/14 07:18:24;;;;;;;3.83;2.00;;;;;;;;;;4215286;33;20392;-80
2023/07/14 07:20:52;;;;;;;4.22;1.62;;;;;;;;;;4245329;33;20801;-81
2023/07/14 07:23:18;;;;;;;3.72;1.92;;;;;;;;;;4251013;33;20099;-80
2023/07/14 07:25:48;;;;;;;2.05;1.92;;;;;;;;;;4274132;33;20068;-80
2023/07/14 07:28:15;;;;;;;2.40;1.75;;;;;;;;;;4281625;33;20057;-81
2023/07/14 07:30:43;;;;;;;7.80;1.50;;;;;;;;;;4282224;33;20079;-78
2023/07/14 07:33:09;;;;;;;5.35;1.73;;;;;;;;;;4281496;33;20058;-79
2023/07/14 07:35:37;;;;;;;11.60;1.70;;;;;;;;;;4273858;33;20058;-84
2023/07/14 07:38:04;;;;;;;6.90;1.83;;;;;;;;;;4277827;33;20114;-83
2023/07/14 07:40:31;;;;;;;2.00;1.40;;;;;;;;;;4300680;33;20053;-82
2023/07/14 07:42:58;;;;;;;2.60;1.60;;;;;;;;;;4310262;33;20178;-82
2023/07/14 07:45:30;;;;;;;5.10;1.27;;;;;;;;;;4308828;33;20052;-82
2023/07/14 07:47:57;;;;;;;3.08;1.40;;;;;;;;;;4310888;33;20048;-83
2023/07/14 07:50:23;;;;;;;2.22;1.40;;;;;;;;;;4308436;33;20067;-81
2023/07/14 07:52:51;;;;;;;4.20;1.48;;;;;;;;;;4275103;33;20086;-82
2023/07/14 07:55:17;;;;;;;5.68;1.83;;;;;;;;;;4250201;33;20043;-80
2023/07/14 07:57:47;;;;;;;1.70;1.45;;;;;;;;;;4247769;33;20057;-80
2023/07/14 08:00:13;;;;;;;2.15;1.87;;;;;;;;;;4249630;33;20038;-83
2023/07/14 08:02:42;;;;;;;4.85;1.55;;;;;;;;;;4235040;33;20053;-81
2023/07/14 08:05:10;;;;;;;3.17;1.45;;;;;;;;;;4249788;33;20442;-81
2023/07/14 08:07:36;;;;;;;2.30;1.35;;;;;;;;;;4244102;33;20387;-82
2023/07/14 08:10:03;;;;;;;7.12;1.45;;;;;;;;;;4220896;34;20055;-84
2023/07/14 08:12:29;;;;;;;2.53;1.62;;;;;;;;;;4219358;33;20043;-83
2023/07/14 08:14:56;;;;;;;5.60;1.48;;;;;;;;;;4222537;33;20491;-83
2023/07/14 08:17:23;;;;;;;6.00;1.83;;;;;;;;;;4223058;33;20511;-82
2023/07/14 08:19:54;;;;;;;2.45;1.37;;;;;;;;;;4223566;34;20065;-82
2023/07/14 08:22:21;;;;;;;1.50;1.40;;;;;;;;;;4213573;34;20089;-84
2023/07/14 08:24:47;;;;;;;2.08;1.55;;;;;;;;;;4243557;33;20072;-82
2023/07/14 08:27:14;;;;;;;1.35;1.25;;;;;;;;;;4276684;33;20203;-83
2023/07/14 08:29:40;;;;;;;1.52;1.30;;;;;;;;;;4279150;33;20037;-83
2023/07/14 08:32:07;;;;;;;1.73;1.62;;;;;;;;;;4278609;33;20467;-82
2023/07/14 08:34:33;;;;;;;4.47;1.30;;;;;;;;;;4279962;33;20045;-82
2023/07/14 08:36:59;;;;;;;5.30;1.35;;;;;;;;;;4278557;33;20408;-81
2023/07/14 08:39:26;;;;;;;5.97;1.67;;;;;;;;;;4280449;33;20447;-83
2023/07/14 08:41:56;;;;;;;3.17;1.60;;;;;;;;;;4292711;33;20093;-82
2023/07/14 08:44:31;;;;;;;1.60;1.30;;;;;;;;;;4295396;33;20380;-83
2023/07/14 08:47:27;;;;;;;2.12;1.92;;;;;;;;;;4275758;33;20096;-86
2023/07/14 08:50:00;;;;;;;1.55;1.35;;;;;;;;;;4266949;33;20041;-84
2023/07/14 08:52:34;;;;;;;6.37;1.85;;;;;;;;;;4262682;33;20987;-81
2023/07/14 08:55:04;;;;;;;2.83;1.52;;;;;;;;;;4275743;33;20151;-83
2023/07/14 08:57:33;;;;;;;3.80;1.50;;;;;;;;;;4279073;33;20045;-82
2023/07/14 09:00:00;;;;;;;5.78;1.55;;;;;;;;;;4270973;33;20111;-82
2023/07/14 09:02:39;;;;;;;3.85;1.52;;;;;;;;;;4270004;33;21017;-81
2023/07/14 09:05:10;;;;;;;4.15;1.98;;;;;;;;;;4263068;33;20046;-82
2023/07/14 09:07:37;;;;;;;2.08;1.27;;;;;;;;;;4261527;33;20105;-81
2023/07/14 09:10:03;;;;;;;4.10;1.20;;;;;;;;;;4264271;33;20211;-81
2023/07/14 09:12:34;;;;;;;3.60;1.37;;;;;;;;;;4263580;33;20054;-80
2023/07/14 09:15:02;;;;;;;1.45;1.10;;;;;;;;;;4262966;33;20089;-81
2023/07/14 09:17:42;;;;;;;5.68;1.30;;;;;;;;;;4265949;33;20103;-81
2023/07/14 09:20:17;;;;;;;5.90;1.40;;;;;;;;;;4272169;33;20049;-84
2023/07/14 09:22:55;;;;;;;2.03;1.12;;;;;;;;;;4274260;33;20075;-84
2023/07/14 09:25:34;;;;;;;4.72;1.87;;;;;;;;;;4274366;33;20038;-83
2023/07/14 09:28:00;;;;;;;4.10;1.40;;;;;;;;;;4273217;33;20096;-84
2023/07/14 09:30:28;;;;;;;6.60;2.72;;;;;;;;;;4235671;33;20218;-82
2023/07/14 09:32:57;;;;;;;9.70;1.50;;;;;;;;;;4234144;33;20039;-83
2023/07/14 09:35:25;;;;;;;3.08;2.12;;;;;;;;;;4237798;33;20240;-79
2023/07/14 09:38:03;;;;;;;9.00;1.50;;;;;;;;;;4248893;33;20125;-77
2023/07/14 09:40:33;;;;;;;8.57;2.20;;;;;;;;;;4255437;33;20394;-80
2023/07/14 09:43:01;;;;;;;2.40;1.50;;;;;;;;;;4247438;33;20534;-80
2023/07/14 09:45:28;;;;;;;1.50;1.42;;;;;;;;;;4263320;33;20463;-80
2023/07/14 09:48:03;;;;;;;1.25;1.17;;;;;;;;;;4248678;33;20054;-82
2023/07/14 09:50:31;;;;;;;1.20;1.00;;;;;;;;;;4251029;33;20089;-80
2023/07/14 09:53:04;;;;;;;4.28;1.67;;;;;;;;;;4248400;33;20038;-77
2023/07/14 09:55:52;;;;;;;3.35;2.10;;;;;;;;;;4250305;33;20195;-77
2023/07/14 09:58:21;;;;;;;3.65;1.40;;;;;;;;;;4246292;33;20547;-78
2023/07/14 10:00:49;;;;;;;3.85;1.50;;;;;;;;;;4218619;33;20046;-76
2023/07/14 10:03:16;;;;;;;1.92;1.50;;;;;;;;;;4192258;34;20043;-80
2023/07/14 10:05:57;;;;;;;5.18;1.87;;;;;;;;;;4196840;34;20036;-82
2023/07/14 10:08:23;;;;;;;;;;;;;;;;;;4219975;33;20136;-78
2023/07/14 10:10:49;;;;;;;1.67;1.50;;;;;;;;;;4239831;33;20003;-78
2023/07/14 10:13:18;;;;;;;4.00;1.25;;;;;;;;;;4236757;33;20058;-76
2023/07/14 10:15:53;;;;;;;2.70;1.37;;;;;;;;;;4238470;33;20043;-77
2023/07/14 10:18:20;;;;;;;2.12;1.48;;;;;;;;;;4225113;33;20046;-77
2023/07/14 10:21:00;;;;;;;2.85;1.62;;;;;;;;;;4219460;34;20098;-76
2023/07/14 10:23:27;;;;;;;1.92;1.35;;;;;;;;;;4220691;34;20050;-77
2023/07/14 10:25:54;;;;;;;3.33;2.45;;;;;;;;;;4200419;34;20096;-77
2023/07/14 10:28:23;;;;;;;8.07;1.65;;;;;;;;;;4174923;34;20055;-75
2023/07/14 10:31:02;;;;;;;4.03;1.58;;;;;;;;;;4175034;34;20048;-77
2023/07/14 10:33:46;;;;;;;5.05;1.48;;;;;;;;;;4192081;34;20109;-77
2023/07/14 10:36:14;;;;;;;1.83;1.73;;;;;;;;;;4189317;34;20069;-80
2023/07/14 10:39:02;;;;;;;4.37;1.67;;;;;;;;;;4192425;34;20069;-79
2023/07/14 10:41:28;;;;;;;2.05;1.52;;;;;;;;;;4174299;34;20075;-77
2023/07/14 10:43:59;;;;;;;4.12;1.40;;;;;;;;;;4164645;34;20081;-79
2023/07/14 10:46:32;;;;;;;1.83;1.50;;;;;;;;;;4177579;34;20652;-79
2023/07/14 10:49:21;;;;;;;1.67;1.52;;;;;;;;;;4180347;34;20438;-79
2023/07/14 10:51:52;;;;;;;2.00;1.37;;;;;;;;;;4190354;34;20059;-79
2023/07/14 10:54:19;;;;;;;3.00;1.40;;;;;;;;;;4190789;34;20529;-79
2023/07/14 10:57:05;;;;;;;1.50;1.35;;;;;;;;;;4203420;33;20035;-76
2023/07/14 10:59:34;;;;;;;1.92;1.42;;;;;;;;;;4215904;33;20072;-76
2023/07/14 11:02:19;;;;;;;3.87;1.52;;;;;;;;;;4348122;28;20044;-78
2023/07/14 11:04:51;;;;;;;1.67;1.08;;;;;;;;;;4181921;34;20051;-78
2023/07/14 11:07:22;;;;;;;1.37;1.27;;;;;;;;;;4180204;34;20059;-78
2023/07/14 11:09:49;;;;;;;1.42;1.35;;;;;;;;;;4193874;34;20210;-76
2023/07/14 11:12:14;;;;;;;4.87;1.27;;;;;;;;;;4193335;34;20077;-77
2023/07/14 11:14:46;;;;;;;6.50;1.60;;;;;;;;;;4193766;34;20927;-78
2023/07/14 11:17:12;;;;;;;;;;;;;;;;;;4194137;34;20051;-78
2023/07/14 11:19:48;;;;;;;3.15;1.48;;;;;;;;;;4195988;34;19984;-75
2023/07/14 11:22:20;;;;;;;4.28;1.77;;;;;;;;;;4204886;33;20060;-80
2023/07/14 11:25:16;;;;;;;9.27;2.30;;;;;;;;;;4238660;33;20080;-79
2023/07/14 11:28:05;;;;;;;2.40;1.30;;;;;;;;;;4209394;34;20047;-84
2023/07/14 11:30:36;;;;;;;4.12;1.40;;;;;;;;;;4192760;34;20125;-84
2023/07/14 11:33:05;;;;;;;3.53;1.60;;;;;;;;;;4198562;34;20051;-77
2023/07/14 11:35:40;;;;;;;6.03;3.22;;;;;;;;;;4194630;34;20104;-78
2023/07/14 11:38:15;;;;;;;2.97;1.62;;;;;;;;;;4209063;34;20036;-79
2023/07/14 11:40:43;;;;;;;2.80;1.73;;;;;;;;;;4203561;34;20087;-81
2023/07/14 11:43:17;;;;;;;3.42;1.40;;;;;;;;;;4170404;34;20032;-79
2023/07/14 11:45:45;;;;;;;1.58;1.48;;;;;;;;;;4176961;34;20073;-79
2023/07/14 11:48:23;;;;;;;3.65;1.58;;;;;;;;;;4170358;34;20114;-79
2023/07/14 11:51:02;;;;;;;8.27;1.42;;;;;;;;;;4175945;34;20458;-79
2023/07/14 11:53:32;;;;;;;1.50;1.40;;;;;;;;;;4181242;34;20043;-80
2023/07/14 11:56:12;;;;;;;1.30;1.20;;;;;;;;;;4180854;34;20065;-79
2023/07/14 11:58:39;;;;;;;1.40;1.40;;;;;;;;;;4180622;34;20032;-79
2023/07/14 12:01:24;;;;;;;5.12;1.30;;;;;;;;;;4185417;34;20107;-80
2023/07/14 12:06:41;;;;;;;2.15;1.40;;;;;;;;;;4167903;34;20081;-78
2023/07/14 12:09:11;;;;;;;1.73;1.35;;;;;;;;;;4168772;34;20056;-77
2023/07/14 12:11:37;;;;;;;3.45;1.65;;;;;;;;;;4152874;34;20155;-78
2023/07/14 12:14:23;;;;;;;3.25;2.08;;;;;;;;;;4150630;34;20059;-77
2023/07/14 12:16:50;;;;;;;3.20;1.45;;;;;;;;;;4166741;34;20051;-76
2023/07/14 12:19:26;;;;;;;3.78;1.60;;;;;;;;;;4165820;34;20048;-77
2023/07/14 12:21:59;;;;;;;4.93;1.60;;;;;;;;;;4166786;34;20070;-77
2023/07/14 12:24:31;;;;;;;1.87;1.67;;;;;;;;;;4153747;34;20180;-79
2023/07/14 12:27:16;;;;;;;7.12;1.80;;;;;;;;;;4153631;34;20056;-78
2023/07/14 12:29:42;;;;;;;1.33;1.30;;;;;;;;;;4155564;34;20044;-76
2023/07/14 12:32:16;;;;;;;1.60;1.50;;;;;;;;;;4164503;34;20048;-76
2023/07/14 12:34:43;;;;;;;2.45;1.75;;;;;;;;;;4181876;34;20107;-77
2023/07/14 12:37:15;;;;;;;5.65;1.87;;;;;;;;;;4178371;34;20063;-79
2023/07/14 12:39:41;;;;;;;;;;;;;;;;;;4186402;34;20131;-78
2023/07/14 12:42:08;;;;;;;2.70;1.70;;;;;;;;;;4192542;34;20313;-78
2023/07/14 12:44:35;;;;;;;2.58;1.30;;;;;;;;;;4181965;34;20055;-77
2023/07/14 12:47:02;;;;;;;3.40;1.65;;;;;;;;;;4181885;34;20117;-77
2023/07/14 12:49:33;;;;;;;1.55;1.45;;;;;;;;;;4194813;34;20039;-77
2023/07/14 12:52:26;;;;;;;1.20;1.20;;;;;;;;;;4195064;34;20036;-77
2023/07/14 12:54:56;;;;;;;1.45;1.35;;;;;;;;;;4195556;34;20092;-77
2023/07/14 12:57:22;;;;;;;3.28;1.17;;;;;;;;;;4209728;34;20610;-76
2023/07/14 12:59:49;;;;;;;2.17;1.45;;;;;;;;;;4209646;34;20038;-76
2023/07/14 13:02:16;;;;;;;2.70;2.03;;;;;;;;;;4214180;34;20061;-76
2023/07/14 13:04:42;;;;;;;1.55;1.20;;;;;;;;;;4193146;34;20039;-77
2023/07/14 13:07:13;;;;;;;5.30;1.77;;;;;;;;;;4185907;34;20066;-76
2023/07/14 13:09:39;;;;;;;1.33;1.33;;;;;;;;;;4181763;34;20082;-76
2023/07/14 13:12:05;;;;;;;5.47;1.48;;;;;;;;;;4180002;34;20047;-77
2023/07/14 13:14:35;;;;;;;3.78;1.33;;;;;;;;;;4180495;34;20075;-77
2023/07/14 13:17:03;;;;;;;3.80;1.42;;;;;;;;;;4178320;34;20082;-78
2023/07/14 13:19:38;;;;;;;1.65;1.10;;;;;;;;;;4181833;34;20077;-76
2023/07/14 13:22:04;;;;;;;2.65;1.42;;;;;;;;;;4181939;34;20059;-76
2023/07/14 13:24:33;;;;;;;1.25;1.20;;;;;;;;;;4166442;34;20508;-76
2023/07/14 13:27:01;;;;;;;3.87;1.20;;;;;;;;;;4166460;34;20065;-77
2023/07/14 13:29:28;;;;;;;2.25;1.50;;;;;;;;;;4168024;34;20052;-76
2023/07/14 13:31:56;;;;;;;2.80;1.27;;;;;;;;;;4165704;34;20201;-76
2023/07/14 13:34:24;;;;;;;2.72;1.60;;;;;;;;;;4169018;34;20070;-76
2023/07/14 13:36:52;;;;;;;2.45;1.52;;;;;;;;;;4183783;34;20389;-77
2023/07/14 13:39:29;;;;;;;1.25;1.25;;;;;;;;;;4192088;34;20044;-79
2023/07/14 13:41:57;;;;;;;2.67;1.70;;;;;;;;;;4195158;34;20043;-78
2023/07/14 13:44:49;;;;;;;1.50;1.40;;;;;;;;;;4181448;34;20047;-77
2023/07/14 13:47:17;;;;;;;1.67;1.37;;;;;;;;;;4211817;33;20058;-77
2023/07/14 13:49:45;;;;;;;1.12;1.10;;;;;;;;;;4222794;33;20039;-79
2023/07/14 13:52:13;;;;;;;3.22;1.25;;;;;;;;;;4222670;34;20466;-77
2023/07/14 13:54:40;;;;;;;2.08;1.33;;;;;;;;;;4222306;33;20189;-79
2023/07/14 13:57:10;;;;;;;2.80;1.45;;;;;;;;;;4249027;33;20061;-79
2023/07/14 13:59:38;;;;;;;1.33;1.33;;;;;;;;;;4249816;33;20376;-78
2023/07/14 14:02:20;;;;;;;3.03;1.37;;;;;;;;;;4248857;33;20182;-79
2023/07/14 14:04:46;;;;;;;4.37;2.05;;;;;;;;;;4249702;33;20059;-78
2023/07/14 14:07:12;;;;;;;1.48;1.20;;;;;;;;;;4234422;33;20451;-77
2023/07/14 14:09:38;;;;;;;2.70;1.30;;;;;;;;;;4236144;33;20050;-79
2023/07/14 14:14:38;;;;;;;2.83;1.30;;;;;;;;;;4234720;33;20071;-79
2023/07/14 14:17:05;;;;;;;1.60;1.50;;;;;;;;;;4228105;33;20058;-78
2023/07/14 14:19:31;;;;;;;5.03;1.40;;;;;;;;;;4236233;33;20070;-80
2023/07/14 14:21:58;;;;;;;2.85;1.02;;;;;;;;;;4235124;33;20099;-79
2023/07/14 14:24:25;;;;;;;1.62;1.50;;;;;;;;;;4235012;33;20051;-80
2023/07/14 14:26:52;;;;;;;2.05;1.62;;;;;;;;;;4207522;33;20422;-79
2023/07/14 14:29:19;;;;;;;4.68;1.73;;;;;;;;;;4218563;33;20075;-79
2023/07/14 14:31:45;;;;;;;2.72;1.50;;;;;;;;;;4219205;33;20094;-80
2023/07/14 14:34:13;;;;;;;1.73;1.02;;;;;;;;;;4216471;33;20607;-78
2023/07/14 14:36:39;;;;;;;5.93;1.37;;;;;;;;;;4202400;34;20462;-81
2023/07/14 14:39:13;;;;;;;1.30;0.98;;;;;;;;;;4197702;34;20192;-85
2023/07/14 14:41:40;;;;;;;4.03;1.77;;;;;;;;;;4208003;34;20048;-77
2023/07/14 14:44:14;;;;;;;2.17;1.40;;;;;;;;;;4210731;34;20077;-76
2023/07/14 14:46:40;;;;;;;5.47;1.40;;;;;;;;;;4214253;34;20039;-83
2023/07/14 14:49:14;;;;;;;2.58;1.20;;;;;;;;;;4181752;34;20541;-78
2023/07/14 14:51:41;;;;;;;1.62;1.30;;;;;;;;;;4185094;34;20085;-79
2023/07/14 14:54:08;;;;;;;3.20;1.45;;;;;;;;;;4181739;34;20039;-79
2023/07/14 14:56:40;;;;;;;2.97;1.50;;;;;;;;;;4184210;34;20075;-81
2023/07/14 14:59:18;;;;;;;2.42;1.70;;;;;;;;;;4177322;34;20042;-80
2023/07/14 15:01:46;;;;;;;1.67;1.45;;;;;;;;;;4173162;34;20406;-78
2023/07/14 15:04:16;;;;;;;4.97;1.87;;;;;;;;;;4179191;34;20137;-80
2023/07/14 15:06:43;;;;;;;3.60;1.98;;;;;;;;;;4176230;34;20059;-81
2023/07/14 15:09:09;;;;;;;8.13;1.60;;;;;;;;;;4153732;34;20053;-81
2023/07/14 15:11:40;;;;;;;3.25;1.45;;;;;;;;;;4151051;34;20072;-79
2023/07/14 15:14:34;;;;;;;2.40;1.00;;;;;;;;;;4151575;34;20064;-79
2023/07/14 15:17:01;;;;;;;1.33;1.33;;;;;;;;;;4151602;34;20174;-76
2023/07/14 15:19:29;;;;;;;2.75;1.90;;;;;;;;;;4156164;34;20066;-79
2023/07/14 15:22:00;;;;;;;1.58;1.20;;;;;;;;;;4165311;34;20052;-79
2023/07/14 15:24:27;;;;;;;2.35;1.95;;;;;;;;;;4169256;34;20866;-79
2023/07/14 15:26:54;;;;;;;1.30;1.23;;;;;;;;;;4202800;34;20490;-78
2023/07/14 15:29:21;;;;;;;1.58;1.48;;;;;;;;;;4200845;34;20073;-79
2023/07/14 15:31:47;;;;;;;4.15;1.12;;;;;;;;;;4176562;34;20049;-79
2023/07/14 15:34:14;;;;;;;1.48;1.40;;;;;;;;;;4184130;34;20077;-79
2023/07/14 15:36:41;;;;;;;4.00;1.42;;;;;;;;;;4182198;34;20055;-80
2023/07/14 15:39:10;;;;;;;1.40;1.30;;;;;;;;;;4218547;33;20046;-79
2023/07/14 15:41:37;;;;;;;2.08;1.30;;;;;;;;;;4225423;33;20069;-81
2023/07/14 15:44:08;;;;;;;4.30;1.33;;;;;;;;;;4220768;34;20063;-82
2023/07/14 15:46:35;;;;;;;2.70;1.62;;;;;;;;;;4221624;34;20311;-82
2023/07/14 15:49:01;;;;;;;2.40;1.45;;;;;;;;;;4223392;33;20050;-82
2023/07/14 15:51:28;;;;;;;2.12;1.60;;;;;;;;;;4223499;34;20109;-82
2023/07/14 15:53:56;;;;;;;3.90;1.42;;;;;;;;;;4220506;33;20075;-80
2023/07/14 15:56:23;;;;;;;2.03;1.80;;;;;;;;;;4225621;34;20092;-83
2023/07/14 15:58:49;;;;;;;4.47;2.33;;;;;;;;;;4224867;34;20038;-85
2023/07/14 16:01:16;;;;;;;2.55;1.60;;;;;;;;;;4225329;34;20060;-84
2023/07/14 16:03:42;;;;;;;3.92;1.37;;;;;;;;;;4244461;33;20042;-85
2023/07/14 16:06:12;;;;;;;8.27;1.58;;;;;;;;;;4247070;33;20068;-83
2023/07/14 16:08:39;;;;;;;1.67;1.58;;;;;;;;;;4251287;33;20042;-86
2023/07/14 16:11:16;;;;;;;11.75;1.92;;;;;;;;;;4250532;33;20108;-85
2023/07/14 16:13:42;;;;;;;3.75;1.58;;;;;;;;;;4250826;33;20073;-84
2023/07/14 16:16:09;;;;;;;2.85;1.87;;;;;;;;;;4248673;33;20427;-84
2023/07/14 16:18:35;;;;;;;1.70;1.60;;;;;;;;;;4248030;33;20267;-84
2023/07/14 16:21:01;;;;;;;5.82;1.67;;;;;;;;;;4248757;33;20115;-85
2023/07/14 16:23:28;;;;;;;2.00;1.48;;;;;;;;;;4238592;33;20121;-85
2023/07/14 16:25:55;;;;;;;1.87;1.55;;;;;;;;;;4235835;33;20201;-85
2023/07/14 16:28:22;;;;;;;2.28;1.85;;;;;;;;;;4235328;33;20451;-85
2023/07/14 16:30:48;;;;;;;1.62;1.55;;;;;;;;;;4237128;33;20149;-80
2023/07/14 16:33:14;;;;;;;1.58;1.48;;;;;;;;;;4248550;33;20090;-82
2023/07/14 16:35:41;;;;;;;1.80;1.70;;;;;;;;;;4237654;33;20054;-83
2023/07/14 16:38:18;;;;;;;1.80;1.70;;;;;;;;;;4224398;33;20816;-84
2023/07/14 16:40:44;;;;;;;1.50;1.40;;;;;;;;;;4221397;33;20124;-81
2023/07/14 16:43:11;;;;;;;3.33;1.55;;;;;;;;;;4227153;33;20068;-80
2023/07/14 16:45:38;;;;;;;1.83;1.67;;;;;;;;;;4217697;34;20067;-79
2023/07/14 16:48:04;;;;;;;1.83;1.73;;;;;;;;;;4173527;34;20480;-83
2023/07/14 16:50:32;;;;;;;4.60;1.48;;;;;;;;;;4190204;34;20327;-80
2023/07/14 16:52:58;;;;;;;1.87;1.77;;;;;;;;;;4180026;34;20104;-81
2023/07/14 16:55:26;;;;;;;2.67;2.47;;;;;;;;;;4179673;34;20060;-79
2023/07/14 16:57:56;;;;;;;2.35;2.25;;;;;;;;;;4179314;34;20185;-83
2023/07/14 17:00:31;;;;;;;4.97;1.50;;;;;;;;;;4168620;34;20052;-82